createdAt,value
2018-03-19T00:01:43.787Z,21.97
2018-03-19T00:04:13.749Z,20.10
2018-03-19T00:06:41.685Z,21.00
2018-03-19T00:09:10.371Z,21.57
2018-03-19T00:11:38.205Z,21.27
2018-03-19T00:14:05.965Z,23.50
2018-03-19T00:16:34.647Z,24.63
2018-03-19T00:19:02.806Z,24.33
2018-03-19T00:21:31.857Z,22.23
2018-03-19T00:23:59.986Z,23.43
2018-03-19T00:26:28.886Z,23.83
2018-03-19T00:28:56.925Z,25.10
2018-03-19T00:31:25.085Z,23.90
2018-03-19T00:33:53.688Z,24.03
2018-03-19T00:36:21.728Z,22.33
2018-03-19T00:38:50.947Z,24.73
2018-03-19T00:41:18.967Z,20.93
2018-03-19T00:43:47.165Z,22.20
2018-03-19T00:46:15.096Z,22.53
2018-03-19T00:48:42.985Z,21.67
2018-03-19T00:51:10.866Z,20.37
2018-03-19T00:53:38.845Z,21.70
2018-03-19T00:56:07.798Z,21.00
2018-03-19T00:58:35.564Z,21.70
2018-03-19T01:01:03.648Z,17.70
2018-03-19T01:03:31.388Z,19.63
2018-03-19T01:05:59.509Z,18.00
2018-03-19T01:08:27.447Z,18.03
2018-03-19T01:10:55.989Z,17.67
2018-03-19T01:13:23.889Z,19.43
2018-03-19T01:15:51.971Z,17.65
2018-03-19T01:18:19.829Z,18.50
2018-03-19T01:20:47.749Z,18.27
2018-03-19T01:23:15.808Z,19.77
2018-03-19T01:25:43.948Z,18.43
2018-03-19T01:28:12.073Z,18.70
2018-03-19T01:30:40.127Z,19.00
2018-03-19T01:33:08.116Z,19.10
2018-03-19T01:35:36.048Z,21.13
2018-03-19T01:38:03.905Z,19.20
2018-03-19T01:40:31.925Z,17.87
2018-03-19T01:42:59.885Z,19.03
2018-03-19T01:47:55.265Z,18.33
2018-03-19T01:50:23.145Z,18.63
2018-03-19T01:52:51.084Z,20.83
2018-03-19T01:55:18.985Z,21.05
2018-03-19T01:57:49.729Z,19.63
2018-03-19T02:00:17.376Z,20.20
2018-03-19T02:02:46.145Z,18.93
2018-03-19T02:05:14.086Z,19.57
2018-03-19T02:07:41.968Z,19.47
2018-03-19T02:10:10.146Z,20.80
2018-03-19T02:12:38.446Z,20.40
2018-03-19T02:15:06.310Z,20.20
2018-03-19T02:17:34.386Z,19.10
2018-03-19T02:20:02.966Z,21.07
2018-03-19T02:22:33.473Z,21.50
2018-03-19T02:25:01.446Z,20.50
2018-03-19T02:27:30.247Z,19.50
2018-03-19T02:29:58.045Z,18.40
2018-03-19T02:32:26.266Z,20.80
2018-03-19T02:34:55.245Z,19.03
2018-03-19T02:39:50.544Z,19.47
2018-03-19T02:42:18.725Z,20.83
2018-03-19T02:44:46.586Z,20.43
2018-03-19T02:47:14.500Z,20.13
2018-03-19T02:49:42.326Z,20.63
2018-03-19T03:04:28.686Z,19.50
2018-03-19T03:06:56.427Z,19.90
2018-03-19T03:19:15.287Z,20.40
2018-03-19T03:29:06.625Z,20.00
2018-03-19T03:31:34.527Z,19.90
2018-03-19T04:33:21.583Z,19.90
2018-03-19T04:40:44.806Z,18.95
2018-03-19T04:43:12.926Z,18.95
2018-03-19T04:45:40.765Z,19.60
2018-03-19T04:50:38.349Z,21.00
2018-03-19T05:00:29.513Z,19.65
2018-03-19T05:05:25.605Z,21.07
2018-03-19T05:07:53.885Z,21.00
2018-03-19T05:10:21.823Z,18.93
2018-03-19T05:12:49.685Z,20.77
2018-03-19T05:15:17.734Z,21.37
2018-03-19T05:17:45.873Z,19.80
2018-03-19T05:20:14.487Z,21.00
2018-03-19T05:22:42.404Z,19.60
2018-03-19T05:25:10.285Z,20.93
2018-03-19T05:27:38.253Z,20.03
2018-03-19T05:30:06.386Z,21.03
2018-03-19T05:32:34.307Z,19.93
2018-03-19T05:35:02.645Z,20.43
2018-03-19T05:37:30.866Z,21.77
2018-03-19T05:39:58.687Z,19.67
2018-03-19T05:42:26.465Z,19.60
2018-03-19T05:44:54.646Z,20.00
2018-03-19T05:47:22.604Z,21.77
2018-03-19T05:49:51.105Z,22.47
2018-03-19T05:52:19.765Z,22.47
2018-03-19T05:54:47.638Z,20.30
2018-03-19T05:57:15.805Z,20.73
2018-03-19T05:59:43.605Z,20.73
2018-03-19T06:02:11.329Z,25.53
2018-03-19T06:04:39.289Z,28.47
2018-03-19T06:07:07.449Z,24.03
2018-03-19T06:09:35.689Z,24.00
2018-03-19T06:12:03.869Z,20.80
2018-03-19T06:14:31.638Z,21.93
2018-03-19T06:16:59.489Z,19.30
2018-03-19T06:19:27.249Z,20.17
2018-03-19T06:21:55.290Z,19.97
2018-03-19T06:24:23.066Z,20.97
2018-03-19T06:26:51.048Z,19.30
2018-03-19T06:29:18.804Z,20.93
2018-03-19T06:31:51.202Z,21.63
2018-03-19T06:34:23.889Z,21.13
2018-03-19T06:36:55.620Z,20.73
2018-03-19T06:39:24.722Z,22.13
2018-03-19T06:41:52.386Z,22.17
2018-03-19T06:44:21.865Z,23.00
2018-03-19T07:28:49.887Z,18.37
2018-03-19T07:31:18.446Z,17.90
2018-03-19T07:33:46.293Z,16.80
2018-03-19T07:36:14.371Z,18.63
2018-03-19T07:38:42.412Z,17.97
2018-03-19T07:41:10.306Z,18.13
2018-03-19T07:43:38.526Z,17.50
2018-03-19T07:46:06.567Z,17.77
2018-03-19T07:48:34.759Z,18.13
2018-03-19T07:51:02.826Z,17.30
2018-03-19T07:53:30.848Z,16.73
2018-03-19T07:55:59.388Z,16.17
2018-03-19T07:58:27.287Z,18.13
2018-03-19T08:00:55.068Z,17.77
2018-03-19T08:03:22.954Z,16.00
2018-03-19T08:05:52.250Z,16.03
2018-03-19T08:08:20.069Z,17.20
2018-03-19T08:10:48.006Z,17.93
2018-03-19T08:23:06.573Z,18.60
2018-03-19T08:30:32.021Z,18.95
2018-03-19T09:22:12.813Z,18.00
2018-03-19T09:24:42.787Z,18.33
2018-03-19T09:27:11.291Z,17.70
2018-03-19T09:29:39.106Z,17.20
2018-03-19T09:32:06.946Z,17.50
2018-03-19T09:37:02.009Z,17.73
2018-03-19T09:39:29.685Z,16.13
2018-03-19T09:56:42.986Z,12.53
2018-03-19T09:59:11.636Z,13.17
2018-03-19T10:01:39.366Z,14.20
2018-03-19T10:04:07.067Z,14.37
2018-03-19T10:06:34.866Z,13.70
2018-03-19T10:11:34.410Z,14.60
2018-03-19T10:14:02.217Z,14.65
2018-03-19T10:16:29.946Z,15.35
2018-03-19T10:18:57.658Z,14.90
2018-03-19T10:21:25.488Z,14.90
2018-03-19T10:23:53.228Z,14.30
2018-03-19T11:20:52.850Z,14.60
2018-03-19T11:25:48.070Z,15.00
2018-03-19T11:43:03.871Z,14.17
2018-03-19T11:45:31.648Z,14.57
2018-03-19T11:47:59.949Z,14.10
2018-03-19T11:50:27.732Z,14.87
2018-03-19T11:52:56.386Z,14.50
2018-03-19T11:55:24.213Z,14.03
2018-03-19T11:57:52.267Z,13.30
2018-03-19T12:00:22.341Z,14.00
2018-03-19T12:02:50.569Z,13.30
2018-03-19T12:05:18.691Z,14.00
2018-03-19T12:07:46.529Z,15.20
2018-03-19T12:10:14.369Z,15.20
2018-03-19T12:12:42.324Z,14.60
2018-03-19T12:15:10.309Z,14.10
2018-03-19T12:17:38.268Z,14.03
2018-03-19T12:20:06.109Z,14.27
2018-03-19T12:22:33.888Z,14.93
2018-03-19T12:25:05.532Z,13.97
2018-03-19T12:27:33.927Z,14.50
2018-03-19T12:30:01.753Z,14.30
2018-03-19T12:32:29.746Z,14.60
2018-03-19T12:34:58.267Z,14.15
2018-03-19T12:37:26.426Z,14.10
2018-03-19T14:03:39.926Z,16.57
2018-03-19T14:06:07.846Z,15.83
2018-03-19T17:18:26.087Z,21.27
2018-03-19T17:20:54.047Z,19.27
2018-03-19T17:23:22.033Z,20.60
2018-03-19T17:25:50.170Z,20.10
2018-03-19T17:28:18.092Z,21.83
2018-03-19T17:30:45.980Z,21.20
2018-03-19T17:33:14.006Z,19.77
2018-03-19T17:35:42.027Z,20.27
2018-03-19T17:38:09.837Z,21.73
2018-03-19T17:40:37.831Z,21.67
2018-03-19T17:43:05.888Z,23.80
2018-03-19T17:45:35.088Z,23.63
2018-03-19T17:48:03.807Z,21.60
2018-03-19T17:50:32.607Z,23.67
2018-03-19T17:53:00.647Z,24.23
2018-03-19T17:55:28.926Z,25.03
2018-03-19T17:57:57.727Z,25.13
2018-03-19T18:00:26.033Z,25.13
2018-03-19T18:02:53.926Z,25.50
2018-03-19T18:05:21.687Z,24.30
2018-03-19T18:07:49.588Z,24.70
2018-03-19T18:10:17.576Z,23.80
2018-03-19T18:12:45.506Z,22.27
2018-03-19T18:15:13.808Z,22.27
2018-03-19T18:17:42.469Z,22.33
2018-03-19T18:20:10.606Z,21.50
2018-03-19T18:22:38.687Z,20.47
2018-03-19T18:25:06.553Z,20.53
2018-03-19T18:27:34.688Z,22.57
2018-03-19T18:30:03.272Z,23.20
2018-03-19T18:32:31.147Z,21.80
2018-03-19T18:34:59.367Z,21.93
2018-03-19T18:37:27.365Z,22.20
2018-03-19T18:39:55.243Z,23.53
2018-03-19T18:42:23.231Z,23.67
2018-03-19T18:44:51.827Z,25.80
2018-03-19T18:47:23.602Z,24.10
2018-03-19T18:49:51.989Z,22.40
2018-03-19T18:52:20.122Z,22.73
2018-03-19T18:54:48.026Z,25.40
2018-03-19T18:57:16.026Z,24.40
2018-03-19T18:59:44.468Z,22.53
2018-03-19T19:02:12.728Z,22.37
2018-03-19T19:04:41.187Z,25.50
2018-03-19T19:07:10.706Z,23.80
2018-03-19T19:09:39.288Z,24.53
2018-03-19T19:12:07.646Z,23.60
2018-03-19T19:14:35.488Z,24.67
2018-03-19T19:17:03.969Z,26.07
2018-03-19T19:19:33.107Z,24.23
2018-03-19T19:22:01.273Z,22.97
2018-03-19T19:24:29.727Z,26.30
2018-03-19T19:26:59.175Z,24.73
2018-03-19T19:29:27.918Z,24.63
2018-03-19T19:31:56.868Z,23.00
2018-03-19T19:34:25.876Z,23.87
2018-03-19T19:36:54.728Z,24.57
2018-03-19T19:39:22.605Z,25.70
2018-03-19T19:41:51.667Z,25.43
2018-03-19T19:44:20.207Z,24.07
2018-03-19T19:46:48.827Z,25.30
2018-03-19T19:49:17.107Z,23.77
2018-03-19T19:51:46.186Z,24.80
2018-03-19T19:54:14.046Z,23.83
2018-03-19T19:56:42.828Z,23.53
2018-03-19T19:59:11.019Z,22.13
2018-03-19T20:01:38.947Z,22.00
2018-03-19T20:04:07.048Z,21.03
2018-03-19T20:06:34.928Z,23.13
2018-03-19T20:09:03.086Z,21.20
2018-03-19T20:11:31.932Z,21.53
2018-03-19T20:14:00.630Z,22.93
2018-03-19T20:16:28.929Z,22.57
2018-03-19T20:18:58.569Z,22.17
2018-03-19T20:21:27.328Z,22.37
2018-03-19T20:23:55.206Z,22.20
2018-03-19T20:26:23.067Z,23.47
2018-03-19T20:28:51.228Z,23.80
2018-03-19T20:31:19.067Z,23.53
2018-03-19T20:33:46.911Z,24.20
2018-03-19T20:36:14.850Z,25.03
2018-03-19T20:38:43.072Z,24.53
2018-03-19T20:41:11.034Z,24.87
2018-03-19T20:43:39.247Z,24.47
2018-03-19T20:46:07.173Z,24.70
2018-03-19T20:48:35.486Z,25.73
2018-03-19T20:51:03.431Z,25.00
2018-03-19T20:53:31.275Z,23.90
2018-03-19T20:55:59.227Z,24.17
2018-03-19T20:58:27.462Z,25.27
2018-03-19T21:00:55.526Z,23.87
2018-03-19T21:03:23.286Z,24.43
2018-03-19T21:05:51.327Z,26.37
2018-03-19T21:08:19.268Z,25.23
2018-03-19T21:10:47.726Z,25.30
2018-03-19T21:13:16.436Z,26.13
2018-03-19T21:15:47.052Z,26.30
2018-03-19T21:18:15.267Z,26.23
2018-03-19T21:20:43.439Z,26.97
2018-03-19T21:23:11.647Z,26.70
2018-03-19T21:25:39.807Z,26.03
2018-03-19T21:28:07.806Z,26.93
2018-03-19T21:30:35.946Z,25.00
2018-03-19T21:33:03.928Z,25.77
2018-03-19T21:35:32.526Z,25.80
2018-03-19T21:38:00.387Z,25.07
2018-03-19T21:40:28.536Z,23.53
2018-03-19T21:42:57.287Z,25.73
2018-03-19T21:45:25.107Z,25.23
2018-03-19T21:47:53.026Z,25.47
2018-03-19T21:50:20.989Z,23.90
2018-03-19T21:52:49.062Z,24.47
2018-03-19T21:55:17.206Z,24.27
2018-03-19T21:57:45.246Z,24.17
2018-03-19T22:00:18.514Z,22.97
2018-03-19T22:02:46.767Z,25.50
2018-03-19T22:05:15.288Z,23.83
2018-03-19T22:07:43.246Z,23.77
2018-03-19T22:10:11.427Z,24.80
2018-03-19T22:12:39.507Z,26.03
2018-03-19T22:15:08.127Z,24.73
2018-03-19T22:17:36.286Z,24.73
2018-03-19T22:20:04.986Z,23.65
2018-03-19T22:22:32.886Z,23.67
2018-03-19T22:25:01.566Z,23.17
2018-03-19T22:27:29.647Z,21.47
2018-03-19T22:29:57.948Z,23.43
2018-03-19T22:32:27.609Z,21.70
2018-03-19T22:34:55.446Z,22.80
2018-03-19T22:37:23.365Z,24.53
2018-03-19T22:39:51.616Z,23.55
2018-03-19T22:44:47.965Z,22.65
2018-03-19T22:49:43.228Z,23.00
2018-03-19T22:52:11.586Z,21.93
2018-03-19T22:57:06.986Z,22.65
2018-03-19T22:59:35.047Z,23.85
2018-03-19T23:02:06.012Z,22.80
2018-03-19T23:07:07.705Z,22.50
